Time;durP1;ratioP1;P1;durP2;ratioP2;P2;SDS_P1;SDS_P2;PMS_P1;PMS_P2;Temp;Humidity;BMP_temperature;BMP_pressure;BME280_temperature;BME280_humidity;BME280_pressure;Samples;Min_cycle;Max_cycle;Signal;HPM_P1;HPM_P2
2022/06/25 00:01:11;;;;;;;1.08;0.95;;;17.20;99.90;;;;;;5052721;28;20649;-74
2022/06/25 00:03:38;;;;;;;1.65;0.73;;;17.00;99.90;;;;;;5052240;28;20704;-74
2022/06/25 00:06:04;;;;;;;0.47;0.47;;;16.90;99.90;;;;;;5031202;28;20661;-73
2022/06/25 00:08:30;;;;;;;0.32;0.32;;;16.90;99.90;;;;;;5032258;28;20210;-73
2022/06/25 00:10:56;;;;;;;0.80;0.80;;;16.90;99.90;;;;;;5032347;28;20194;-72
2022/06/25 00:13:22;;;;;;;0.73;0.50;;;16.70;99.90;;;;;;5032864;28;20199;-73
2022/06/25 00:15:49;;;;;;;0.55;0.55;;;16.70;99.90;;;;;;5032623;28;20222;-73
2022/06/25 00:18:18;;;;;;;1.48;1.08;;;16.60;99.90;;;;;;5014626;28;20551;-72
2022/06/25 00:20:45;;;;;;;0.45;0.45;;;16.70;99.90;;;;;;5031375;28;20194;-72
2022/06/25 00:23:11;;;;;;;0.50;0.50;;;16.60;99.90;;;;;;5031036;28;20222;-73
2022/06/25 00:25:37;;;;;;;0.80;0.80;;;16.60;99.90;;;;;;5032079;28;20514;-73
2022/06/25 00:28:04;;;;;;;0.40;0.40;;;16.50;99.90;;;;;;5014152;28;20706;-73
2022/06/25 00:30:31;;;;;;;0.35;0.35;;;16.50;99.90;;;;;;5014405;28;20191;-73
2022/06/25 00:32:57;;;;;;;0.50;0.50;;;16.50;99.90;;;;;;5033166;28;20196;-73
2022/06/25 00:35:24;;;;;;;0.80;0.70;;;16.50;99.90;;;;;;5051690;28;20190;-73
2022/06/25 00:37:49;;;;;;;0.47;0.47;;;16.40;99.90;;;;;;5052104;28;20202;-73
2022/06/25 00:40:15;;;;;;;1.13;0.80;;;16.30;99.90;;;;;;5051805;28;20733;-74
2022/06/25 00:42:45;;;;;;;3.08;0.75;;;16.20;99.90;;;;;;5051780;28;20216;-73
2022/06/25 00:45:12;;;;;;;0.50;0.50;;;16.20;99.90;;;;;;5051993;28;20200;-73
2022/06/25 00:47:38;;;;;;;0.98;0.88;;;16.10;99.90;;;;;;5051600;28;20347;-74
2022/06/25 00:50:05;;;;;;;0.50;0.50;;;16.10;99.90;;;;;;5052051;28;20198;-73
2022/06/25 00:52:33;;;;;;;0.55;0.50;;;16.10;99.90;;;;;;5041019;28;20348;-73
2022/06/25 00:55:10;;;;;;;1.92;0.77;;;16.00;99.90;;;;;;5031708;28;20213;-73
2022/06/25 00:57:39;;;;;;;0.70;0.70;;;16.10;99.90;;;;;;5031829;28;20190;-73
2022/06/25 01:00:08;;;;;;;0.32;0.32;;;16.10;99.90;;;;;;5031459;28;20668;-73
2022/06/25 01:02:34;;;;;;;0.80;0.80;;;16.10;99.90;;;;;;5013746;28;20198;-73
2022/06/25 01:05:03;;;;;;;0.57;0.57;;;16.20;99.90;;;;;;5031735;28;20269;-72
2022/06/25 01:07:29;;;;;;;1.83;1.05;;;16.10;99.90;;;;;;5029726;28;20194;-72
2022/06/25 01:09:56;;;;;;;0.55;0.55;;;16.10;99.90;;;;;;5031850;28;20643;-72
2022/06/25 01:12:22;;;;;;;0.47;0.47;;;16.10;99.90;;;;;;5031338;28;20183;-73
2022/06/25 01:15:08;;;;;;;0.68;0.63;;;16.10;99.90;;;;;;5031636;28;20257;-73
2022/06/25 01:17:54;;;;;;;1.58;1.05;;;16.10;99.90;;;;;;5031298;28;20237;-73
2022/06/25 01:20:23;;;;;;;0.95;0.85;;;16.00;99.90;;;;;;5013272;28;20210;-73
2022/06/25 01:22:49;;;;;;;0.55;0.55;;;16.10;99.90;;;;;;5031701;28;20225;-73
2022/06/25 01:25:16;;;;;;;0.50;0.50;;;16.10;99.90;;;;;;5031561;28;20202;-73
2022/06/25 01:27:42;;;;;;;0.35;0.35;;;16.00;99.90;;;;;;5031777;28;20210;-73
2022/06/25 01:30:09;;;;;;;0.57;0.57;;;15.70;99.90;;;;;;5031492;28;20572;-73
2022/06/25 01:32:35;;;;;;;0.60;0.57;;;15.70;99.90;;;;;;5016817;28;20288;-73
2022/06/25 01:35:02;;;;;;;0.50;0.50;;;15.70;99.90;;;;;;5035837;28;20735;-73
2022/06/25 01:37:28;;;;;;;0.98;0.70;;;15.80;99.90;;;;;;5035247;28;20239;-73
2022/06/25 01:39:55;;;;;;;0.60;0.60;;;15.70;99.90;;;;;;5017447;28;20202;-74
2022/06/25 01:45:11;;;;;;;0.38;0.38;;;15.60;99.90;;;;;;5035340;28;20205;-73
2022/06/25 01:47:37;;;;;;;1.27;0.82;;;15.60;99.90;;;;;;5035279;28;20755;-73
2022/06/25 01:50:03;;;;;;;0.55;0.55;;;15.60;99.90;;;;;;5055090;28;20190;-73
2022/06/25 01:52:29;;;;;;;0.90;0.85;;;15.60;99.90;;;;;;5017473;28;20687;-73
2022/06/25 01:54:55;;;;;;;0.40;0.40;;;15.50;99.90;;;;;;5016991;28;20202;-73
2022/06/25 01:57:21;;;;;;;0.55;0.55;;;15.50;99.90;;;;;;5034717;28;20198;-73
2022/06/25 01:59:47;;;;;;;0.88;0.65;;;15.60;99.90;;;;;;5035329;28;20265;-73
2022/06/25 02:02:13;;;;;;;0.63;0.52;;;15.70;99.90;;;;;;5032623;28;20197;-74
2022/06/25 02:04:39;;;;;;;0.57;0.57;;;15.70;99.90;;;;;;5055226;28;20216;-74
2022/06/25 02:07:05;;;;;;;0.63;0.63;;;15.70;99.90;;;;;;5044654;28;20201;-73
2022/06/25 02:09:31;;;;;;;0.90;0.57;;;15.70;99.90;;;;;;5055022;28;20194;-74
2022/06/25 02:11:56;;;;;;;0.82;0.82;;;15.60;99.90;;;;;;5054819;28;20610;-74
2022/06/25 02:14:22;;;;;;;0.70;0.70;;;15.70;99.90;;;;;;5055008;28;20239;-73
2022/06/25 02:16:48;;;;;;;0.30;0.30;;;15.70;99.90;;;;;;5053858;28;20229;-74
2022/06/25 02:19:14;;;;;;;0.73;0.60;;;15.60;99.90;;;;;;5036930;28;20243;-73
2022/06/25 02:21:46;;;;;;;1.08;0.98;;;15.70;99.90;;;;;;5058382;28;20270;-74
2022/06/25 02:24:13;;;;;;;0.40;0.40;;;15.80;99.90;;;;;;5041588;28;20189;-74
2022/06/25 02:26:42;;;;;;;1.08;0.70;;;15.80;99.90;;;;;;5041528;28;20222;-74
2022/06/25 02:29:12;;;;;;;0.40;0.40;;;15.80;99.90;;;;;;5060666;28;20189;-75
2022/06/25 02:31:53;;;;;;;0.90;0.80;;;15.70;99.90;;;;;;5059166;28;20206;-75
2022/06/25 02:34:23;;;;;;;0.55;0.55;;;15.80;99.90;;;;;;5041571;28;20286;-74
2022/06/25 02:37:00;;;;;;;1.70;1.17;;;15.80;99.90;;;;;;5057752;28;20259;-75
2022/06/25 02:39:49;;;;;;;1.17;0.88;;;15.80;99.90;;;;;;5058816;28;20276;-75
2022/06/25 02:42:24;;;;;;;1.17;1.05;;;15.90;99.90;;;;;;5058087;28;20703;-75
2022/06/25 02:45:10;;;;;;;0.30;0.30;;;16.00;99.90;;;;;;5057827;28;20208;-74
2022/06/25 02:48:20;;;;;;;0.32;0.32;;;16.00;99.90;;;;;;5030804;28;20458;-73
2022/06/25 02:50:55;;;;;;;0.73;0.73;;;16.00;99.90;;;;;;4984186;28;20273;-75
2022/06/25 02:54:11;;;;;;;0.50;0.50;;;16.10;99.90;;;;;;5039284;28;20193;-76
2022/06/25 02:59:37;;;;;;;0.68;0.68;;;16.40;99.90;;;;;;5010594;28;20295;-76
2022/06/25 03:02:09;;;;;;;0.60;0.60;;;16.50;99.90;;;;;;5029224;28;20293;-75
2022/06/25 03:05:06;;;;;;;0.77;0.77;;;16.50;99.90;;;;;;5021325;28;20222;-74
2022/06/25 03:07:32;;;;;;;0.70;0.70;;;16.60;99.90;;;;;;5057244;28;20236;-74
2022/06/25 03:09:58;;;;;;;1.05;0.93;;;16.60;99.90;;;;;;5055435;28;20186;-74
2022/06/25 03:12:24;;;;;;;0.75;0.75;;;16.60;99.90;;;;;;5054046;28;20209;-75
2022/06/25 03:14:50;;;;;;;0.75;0.52;;;16.60;99.90;;;;;;5053659;28;20272;-74
2022/06/25 03:17:16;;;;;;;0.70;0.70;;;16.70;99.90;;;;;;5054004;28;20237;-73
2022/06/25 03:19:42;;;;;;;0.70;0.60;;;16.90;99.90;;;;;;5035675;28;20288;-75
2022/06/25 03:22:11;;;;;;;1.00;0.90;;;17.10;99.90;;;;;;5036701;28;20201;-75
2022/06/25 03:24:40;;;;;;;1.10;1.00;;;17.20;99.90;;;;;;5036349;28;20200;-74
2022/06/25 03:27:06;;;;;;;1.52;1.15;;;17.30;99.90;;;;;;5035891;28;20197;-74
2022/06/25 03:29:32;;;;;;;1.13;0.80;;;17.40;99.90;;;;;;5052629;28;20201;-73
2022/06/25 03:31:58;;;;;;;0.47;0.47;;;17.50;99.90;;;;;;5035642;28;20186;-74
2022/06/25 03:34:24;;;;;;;0.60;0.60;;;17.70;99.90;;;;;;5053697;28;20186;-74
2022/06/25 03:36:49;;;;;;;1.08;0.98;;;17.80;99.90;;;;;;5052846;28;20721;-74
2022/06/25 03:39:18;;;;;;;1.25;0.95;;;17.90;99.90;;;;;;5051201;28;20223;-73
2022/06/25 03:41:48;;;;;;;0.43;0.43;;;17.90;99.90;;;;;;5030341;28;20198;-74
2022/06/25 03:44:16;;;;;;;1.13;0.80;;;18.00;99.90;;;;;;5040035;28;20712;-74
2022/06/25 03:46:42;;;;;;;0.50;0.50;;;18.00;99.90;;;;;;5032577;28;20209;-74
2022/06/25 03:49:08;;;;;;;0.75;0.75;;;18.00;99.90;;;;;;5033357;28;20186;-74
2022/06/25 03:51:34;;;;;;;0.55;0.55;;;18.10;99.90;;;;;;5032712;28;20703;-75
2022/06/25 03:54:03;;;;;;;1.05;0.80;;;18.10;99.90;;;;;;5014986;28;20209;-74
2022/06/25 03:56:33;;;;;;;1.15;1.05;;;18.20;99.90;;;;;;5033731;28;20190;-74
2022/06/25 03:58:58;;;;;;;1.00;0.77;;;18.30;99.90;;;;;;5014918;28;20210;-74
2022/06/25 04:01:24;;;;;;;0.60;0.60;;;18.30;99.90;;;;;;5015648;28;20545;-74
2022/06/25 04:03:50;;;;;;;0.70;0.70;;;18.40;99.90;;;;;;5032784;28;20205;-74
2022/06/25 04:06:16;;;;;;;1.13;0.57;;;18.50;99.90;;;;;;5041770;28;20665;-74
2022/06/25 04:08:42;;;;;;;0.95;0.90;;;18.50;99.90;;;;;;5052388;28;20236;-74
2022/06/25 04:11:08;;;;;;;3.13;1.15;;;18.60;99.90;;;;;;5051989;28;20189;-75
2022/06/25 04:13:34;;;;;;;1.38;0.60;;;18.70;99.90;;;;;;5034231;28;20200;-75
2022/06/25 04:16:00;;;;;;;0.85;0.85;;;18.70;99.90;;;;;;5052083;28;20591;-74
2022/06/25 04:18:26;;;;;;;3.00;1.08;;;18.70;99.90;;;;;;5051357;28;20193;-74
2022/06/25 04:20:51;;;;;;;1.23;1.10;;;18.80;99.90;;;;;;5052236;28;20193;-75
2022/06/25 04:23:17;;;;;;;1.02;0.93;;;19.00;99.90;;;;;;5052266;28;20679;-74
2022/06/25 04:25:43;;;;;;;0.55;0.55;;;19.10;99.90;;;;;;5034479;28;20228;-74
2022/06/25 04:30:56;;;;;;;1.13;0.80;;;19.30;99.90;;;;;;5052659;28;20193;-74
2022/06/25 04:33:22;;;;;;;1.75;1.08;;;19.40;99.90;;;;;;5052759;28;20194;-73
2022/06/25 04:35:53;;;;;;;0.40;0.40;;;19.40;99.90;;;;;;5052707;28;20201;-73
2022/06/25 04:38:19;;;;;;;0.95;0.85;;;19.30;99.90;;;;;;5050943;28;20574;-72
2022/06/25 04:40:45;;;;;;;0.60;0.60;;;19.40;99.90;;;;;;5018181;28;20210;-72
2022/06/25 04:43:14;;;;;;;0.88;0.75;;;19.50;99.90;;;;;;5032087;28;20703;-73
2022/06/25 04:45:42;;;;;;;0.98;0.90;;;19.50;99.90;;;;;;5032055;28;20217;-74
2022/06/25 04:48:08;;;;;;;6.95;1.77;;;19.70;99.90;;;;;;5032627;28;20205;-74
2022/06/25 04:50:34;;;;;;;1.90;1.50;;;19.80;99.90;;;;;;5031694;28;20194;-73
2022/06/25 04:52:59;;;;;;;1.30;0.90;;;20.00;99.90;;;;;;5031888;28;20186;-74
2022/06/25 04:55:26;;;;;;;1.23;0.93;;;20.10;99.90;;;;;;5031977;28;20198;-75
2022/06/25 04:57:52;;;;;;;0.93;0.93;;;20.20;99.90;;;;;;5014128;28;20198;-73
2022/06/25 05:00:18;;;;;;;0.55;0.55;;;20.20;99.90;;;;;;5031242;28;20632;-74
2022/06/25 05:02:44;;;;;;;0.57;0.57;;;20.20;99.90;;;;;;5032119;28;20281;-74
2022/06/25 05:05:10;;;;;;;0.75;0.75;;;20.40;99.90;;;;;;5014226;28;20209;-72
2022/06/25 05:07:36;;;;;;;0.95;0.88;;;20.40;99.90;;;;;;5055361;28;20284;-73
2022/06/25 05:10:02;;;;;;;2.08;1.15;;;20.50;99.90;;;;;;5056395;28;20759;-73
2022/06/25 05:15:22;;;;;;;0.38;0.32;;;20.50;99.90;;;;;;5037270;28;20209;-75
2022/06/25 05:17:49;;;;;;;1.33;1.15;;;20.70;99.90;;;;;;5056435;28;20214;-73
2022/06/25 05:20:14;;;;;;;0.50;0.50;;;20.80;99.90;;;;;;5055920;28;20204;-73
2022/06/25 05:22:40;;;;;;;0.88;0.80;;;21.00;99.90;;;;;;5055202;28;20193;-74
2022/06/25 05:25:07;;;;;;;0.73;0.60;;;20.90;99.90;;;;;;5055562;28;20268;-74
2022/06/25 05:27:33;;;;;;;1.25;0.85;;;21.00;99.90;;;;;;5054091;28;20616;-73
2022/06/25 05:29:58;;;;;;;1.38;1.27;;;20.90;99.90;;;;;;5055151;28;20249;-74
2022/06/25 05:32:24;;;;;;;0.68;0.68;;;21.00;99.90;;;;;;5053782;28;20520;-73
2022/06/25 05:34:50;;;;;;;1.30;1.08;;;21.10;99.90;;;;;;5074569;28;20193;-73
2022/06/25 05:37:16;;;;;;;1.10;0.93;;;21.30;99.90;;;;;;5093190;28;20257;-74
2022/06/25 05:39:42;;;;;;;0.55;0.55;;;21.30;99.90;;;;;;5095779;28;20198;-74
2022/06/25 05:42:07;;;;;;;1.27;0.88;;;21.40;99.90;;;;;;5095360;28;20670;-74
2022/06/25 05:44:33;;;;;;;1.27;1.17;;;21.50;99.90;;;;;;5095045;28;20213;-73
2022/06/25 05:47:08;;;;;;;0.90;0.63;;;21.70;99.90;;;;;;5095384;28;20204;-73
2022/06/25 05:49:34;;;;;;;2.53;1.25;;;21.80;99.90;;;;;;5094120;28;20253;-74
2022/06/25 05:52:06;;;;;;;0.82;0.82;;;21.80;99.90;;;;;;5094813;28;20192;-74
2022/06/25 05:54:32;;;;;;;3.50;1.48;;;21.70;99.90;;;;;;5095546;28;20196;-74
2022/06/25 05:56:58;;;;;;;1.27;0.98;;;21.80;99.90;;;;;;5095276;28;20696;-73
2022/06/25 05:59:23;;;;;;;1.23;0.68;;;21.90;99.90;;;;;;5094843;28;20279;-74
2022/06/25 06:01:49;;;;;;;0.80;0.75;;;22.00;99.90;;;;;;5093647;28;20284;-75
2022/06/25 06:04:15;;;;;;;1.42;1.00;;;22.10;99.90;;;;;;5095324;28;20281;-74
2022/06/25 06:06:41;;;;;;;1.00;0.90;;;22.20;99.90;;;;;;5095203;28;20682;-75
2022/06/25 06:09:07;;;;;;;0.68;0.68;;;22.30;99.90;;;;;;5091449;28;20274;-75
2022/06/25 06:11:32;;;;;;;0.77;0.77;;;22.50;99.90;;;;;;5072894;28;20243;-74
2022/06/25 06:13:58;;;;;;;20.05;2.50;;;22.80;99.90;;;;;;5073653;28;20596;-75
2022/06/25 06:16:24;;;;;;;0.77;0.77;;;23.10;99.90;;;;;;5072779;28;20232;-75
2022/06/25 06:18:50;;;;;;;1.48;1.02;;;23.20;99.90;;;;;;5073542;28;20209;-75
2022/06/25 06:21:15;;;;;;;1.23;0.93;;;23.20;99.90;;;;;;5074672;28;20196;-74
2022/06/25 06:23:41;;;;;;;0.73;0.63;;;23.40;99.90;;;;;;5074045;28;20678;-75
2022/06/25 06:26:07;;;;;;;0.68;0.68;;;23.60;99.90;;;;;;5074341;28;20589;-74
2022/06/25 06:28:32;;;;;;;2.25;1.40;;;23.50;99.90;;;;;;5066575;28;20271;-75
2022/06/25 06:31:01;;;;;;;0.88;0.77;;;23.60;99.90;;;;;;5072551;28;20242;-74
2022/06/25 06:33:33;;;;;;;1.05;0.95;;;23.70;99.90;;;;;;5091193;28;20866;-74
2022/06/25 06:35:59;;;;;;;0.68;0.60;;;23.80;99.90;;;;;;5094117;28;20201;-75
2022/06/25 06:38:25;;;;;;;0.65;0.65;;;23.80;99.90;;;;;;5094434;28;20192;-75
2022/06/25 06:40:54;;;;;;;4.05;1.70;;;24.00;99.90;;;;;;5095289;28;20649;-76
2022/06/25 06:43:27;;;;;;;1.13;0.90;;;24.20;99.90;;;;;;5094767;28;20206;-75
2022/06/25 06:46:05;;;;;;;0.57;0.57;;;24.20;99.90;;;;;;5097059;28;20200;-74
2022/06/25 06:48:31;;;;;;;0.68;0.68;;;24.20;99.90;;;;;;5094184;28;20216;-73
2022/06/25 06:51:00;;;;;;;0.75;0.65;;;24.30;99.90;;;;;;5095441;28;20196;-74
2022/06/25 06:53:26;;;;;;;1.38;1.00;;;24.60;99.90;;;;;;5094159;28;20280;-74
2022/06/25 06:55:52;;;;;;;1.17;1.05;;;24.70;99.90;;;;;;5093133;28;20683;-73
2022/06/25 06:58:18;;;;;;;1.35;1.08;;;24.80;99.90;;;;;;5094000;28;20192;-72
2022/06/25 07:00:44;;;;;;;2.40;1.00;;;25.00;99.90;;;;;;5093023;28;20204;-72
2022/06/25 07:03:19;;;;;;;0.85;0.80;;;24.90;99.90;;;;;;5094571;28;20246;-73
2022/06/25 07:05:45;;;;;;;1.10;0.77;;;25.00;99.90;;;;;;5088501;28;20192;-74
2022/06/25 07:08:10;;;;;;;1.27;0.85;;;25.10;99.90;;;;;;5074601;28;20274;-75
2022/06/25 07:10:40;;;;;;;1.05;0.73;;;25.20;99.90;;;;;;5073308;28;20203;-75
2022/06/25 07:13:06;;;;;;;0.50;0.50;;;25.10;99.90;;;;;;5073788;28;20204;-74
2022/06/25 07:15:40;;;;;;;1.35;0.90;;;24.90;99.90;;;;;;5073684;28;20683;-72
2022/06/25 07:18:07;;;;;;;1.60;0.85;;;25.10;99.90;;;;;;5035804;28;20292;-74
2022/06/25 07:20:34;;;;;;;0.80;0.43;;;25.10;99.90;;;;;;5035205;28;20230;-73
2022/06/25 07:23:00;;;;;;;1.33;0.88;;;25.10;99.90;;;;;;5052685;28;20197;-72
2022/06/25 07:25:25;;;;;;;0.65;0.65;;;25.00;99.90;;;;;;5043828;28;20324;-73
2022/06/25 07:27:51;;;;;;;1.23;0.60;;;25.20;99.90;;;;;;5051165;28;20217;-73
2022/06/25 07:30:17;;;;;;;2.25;0.90;;;25.50;99.90;;;;;;5015036;28;20213;-72
2022/06/25 07:32:42;;;;;;;1.50;1.02;;;25.70;99.90;;;;;;5032755;28;20194;-73
2022/06/25 07:35:09;;;;;;;0.65;0.57;;;25.40;99.90;;;;;;5033229;28;20190;-73
2022/06/25 07:37:38;;;;;;;0.40;0.40;;;25.60;99.90;;;;;;5015080;28;20343;-72
2022/06/25 07:40:05;;;;;;;0.85;0.75;;;25.80;99.90;;;;;;5033060;28;20282;-73
2022/06/25 07:42:31;;;;;;;14.55;1.58;;;25.80;99.90;;;;;;5032519;28;20213;-72
2022/06/25 07:44:58;;;;;;;0.90;0.70;;;25.90;99.90;;;;;;5015120;28;20206;-73
2022/06/25 07:47:24;;;;;;;0.93;0.85;;;26.10;99.90;;;;;;5032618;28;20197;-73
2022/06/25 07:52:34;;;;;;;2.20;0.98;;;26.50;99.90;;;;;;5032878;28;20260;-73
2022/06/25 07:55:00;;;;;;;1.52;0.82;;;26.80;99.90;;;;;;5014802;28;20205;-73
2022/06/25 07:57:27;;;;;;;2.10;0.98;;;26.90;99.90;;;;;;5032352;28;20202;-74
2022/06/25 07:59:52;;;;;;;0.50;0.50;;;26.90;99.90;;;;;;5014489;28;20281;-73
2022/06/25 08:02:18;;;;;;;2.45;0.70;;;26.90;99.90;;;;;;5039466;28;20216;-74
2022/06/25 08:04:44;;;;;;;1.55;0.80;;;27.10;99.90;;;;;;5052236;28;20636;-74
2022/06/25 08:07:09;;;;;;;2.65;1.00;;;27.50;99.90;;;;;;5051554;28;20193;-72
2022/06/25 08:09:36;;;;;;;0.95;0.75;;;27.20;99.90;;;;;;5052309;28;20197;-75
2022/06/25 08:12:05;;;;;;;0.60;0.60;;;27.30;99.90;;;;;;5052622;28;20193;-73
2022/06/25 08:14:31;;;;;;;0.98;0.77;;;27.40;99.90;;;;;;5034215;28;20193;-73
2022/06/25 08:16:59;;;;;;;1.55;0.80;;;27.30;99.90;;;;;;5052416;28;20223;-73
2022/06/25 08:19:25;;;;;;;1.63;0.80;;;27.30;99.90;;;;;;5052406;28;20644;-74
2022/06/25 08:21:51;;;;;;;0.75;0.75;;;27.30;99.90;;;;;;5047152;28;20193;-74
2022/06/25 08:24:16;;;;;;;0.57;0.52;;;27.40;99.90;;;;;;5032125;28;20292;-73
2022/06/25 08:26:43;;;;;;;0.65;0.47;;;27.40;99.90;;;;;;5032026;28;20563;-73
2022/06/25 08:29:09;;;;;;;0.98;0.68;;;27.70;99.90;;;;;;5032674;28;20715;-75
2022/06/25 08:31:35;;;;;;;1.30;1.00;;;28.10;99.90;;;;;;5031901;28;20613;-75
2022/06/25 08:34:01;;;;;;;2.60;0.70;;;28.50;99.90;;;;;;5032018;28;20190;-75
2022/06/25 08:36:29;;;;;;;3.00;1.15;;;28.10;99.90;;;;;;5031963;28;20244;-75
2022/06/25 08:38:58;;;;;;;1.42;0.85;;;28.20;99.90;;;;;;5032018;28;20240;-74
2022/06/25 08:41:25;;;;;;;1.50;1.02;;;28.40;99.90;;;;;;5031198;28;20197;-75
2022/06/25 08:43:51;;;;;;;0.50;0.50;;;28.60;99.90;;;;;;5031925;28;20202;-74
2022/06/25 08:46:19;;;;;;;0.47;0.38;;;28.90;99.90;;;;;;5014091;28;20206;-72
2022/06/25 08:48:49;;;;;;;1.85;0.82;;;29.00;99.90;;;;;;5031248;28;20206;-75
2022/06/25 08:51:18;;;;;;;1.85;1.08;;;29.00;99.90;;;;;;5014743;28;20228;-75
2022/06/25 08:53:45;;;;;;;1.08;0.63;;;28.80;99.90;;;;;;5013864;28;20679;-75
2022/06/25 08:56:11;;;;;;;0.90;0.68;;;29.00;99.90;;;;;;5013827;28;20659;-75
2022/06/25 08:58:37;;;;;;;0.90;0.80;;;29.10;99.90;;;;;;5039323;28;20284;-72
2022/06/25 09:01:03;;;;;;;0.85;0.68;;;29.40;99.90;;;;;;5033907;28;20235;-72
2022/06/25 09:03:30;;;;;;;0.80;0.80;;;29.60;99.90;;;;;;5051554;28;20199;-72
2022/06/25 09:05:56;;;;;;;2.88;0.80;;;29.60;99.90;;;;;;5051472;28;20567;-72
2022/06/25 09:08:21;;;;;;;0.80;0.43;;;29.80;99.90;;;;;;5051444;28;20205;-72
2022/06/25 09:10:54;;;;;;;0.70;0.70;;;29.40;99.90;;;;;;5051802;28;20189;-72
2022/06/25 09:13:24;;;;;;;0.65;0.65;;;29.30;99.90;;;;;;5033552;28;20563;-72
2022/06/25 09:15:50;;;;;;;0.88;0.80;;;29.50;99.90;;;;;;5051369;28;20224;-72
2022/06/25 09:18:19;;;;;;;0.68;0.52;;;29.80;99.80;;;;;;5045424;28;20256;-72
2022/06/25 09:21:03;;;;;;;0.77;0.70;;;30.00;99.90;;;;;;5032715;28;20221;-71
2022/06/25 09:24:07;;;;;;;0.50;0.50;;;30.30;99.80;;;;;;5034408;28;20597;-72
2022/06/25 09:26:33;;;;;;;0.60;0.60;;;30.40;97.90;;;;;;5016574;28;20656;-72
2022/06/25 09:29:02;;;;;;;0.77;0.70;;;30.50;99.70;;;;;;5016527;28;20216;-73
2022/06/25 09:31:44;;;;;;;0.60;0.40;;;30.70;98.10;;;;;;5035189;28;20190;-72
2022/06/25 09:34:50;;;;;;;1.08;0.65;;;31.00;96.10;;;;;;5017400;28;20637;-71
2022/06/25 09:37:31;;;;;;;1.00;0.75;;;31.40;97.50;;;;;;5023909;28;20227;-71
2022/06/25 09:40:17;;;;;;;0.60;0.52;;;31.80;98.60;;;;;;5037621;28;20200;-72
2022/06/25 09:47:15;;;;;;;0.55;0.55;;;31.00;94.30;;;;;;4963683;28;20217;-72
2022/06/25 09:49:42;;;;;;;1.80;0.57;;;30.80;95.20;;;;;;4940510;28;20296;-72
2022/06/25 09:52:09;;;;;;;0.70;0.70;;;30.90;94.60;;;;;;4956699;28;20199;-72
2022/06/25 09:54:45;;;;;;;1.92;1.23;;;30.80;93.90;;;;;;4980333;28;20704;-73
2022/06/25 09:57:12;;;;;;;1.05;0.70;;;31.10;95.90;;;;;;4995671;28;20274;-72
2022/06/25 09:59:41;;;;;;;2.78;1.33;;;31.50;93.70;;;;;;4994810;28;20658;-72
2022/06/25 10:02:13;;;;;;;0.98;0.50;;;31.80;95.30;;;;;;4979690;28;20242;-72
2022/06/25 10:04:48;;;;;;;1.42;0.75;;;31.90;93.80;;;;;;4979213;28;20222;-71
2022/06/25 10:07:59;;;;;;;0.75;0.63;;;31.30;91.90;;;;;;4993896;28;20217;-72
2022/06/25 10:10:19;;;;;;;0.52;0.50;;;31.40;93.50;;;;;;4975713;28;20290;-72
2022/06/25 10:12:51;;;;;;;0.93;0.70;;;31.40;91.20;;;;;;4975656;28;20539;-72
2022/06/25 10:15:23;;;;;;;0.75;0.68;;;31.20;91.00;;;;;;4988617;28;20289;-72
2022/06/25 10:18:04;;;;;;;0.50;0.50;;;31.30;91.40;;;;;;5024366;28;20246;-73
2022/06/25 10:20:45;;;;;;;0.50;0.50;;;31.30;88.50;;;;;;5015616;28;20700;-72
2022/06/25 10:23:14;;;;;;;2.72;1.25;;;31.50;92.20;;;;;;5055629;28;20236;-72
2022/06/25 10:25:55;;;;;;;0.52;0.52;;;32.00;91.80;;;;;;5056603;28;20205;-72
2022/06/25 10:28:29;;;;;;;0.65;0.57;;;32.10;87.10;;;;;;5056333;28;20648;-72
2022/06/25 10:30:57;;;;;;;0.73;0.50;;;32.20;87.10;;;;;;5057504;28;20254;-73
2022/06/25 10:33:29;;;;;;;1.10;0.80;;;32.20;85.40;;;;;;5055685;28;20197;-71
2022/06/25 10:35:57;;;;;;;0.60;0.60;;;32.40;86.10;;;;;;5057060;28;20569;-72
2022/06/25 10:38:26;;;;;;;0.22;0.22;;;32.20;90.00;;;;;;5057555;28;20561;-73
2022/06/25 10:40:58;;;;;;;0.77;0.47;;;32.50;89.40;;;;;;5057111;28;20560;-72
2022/06/25 10:43:47;;;;;;;0.50;0.50;;;32.30;86.00;;;;;;5056855;28;20271;-72
2022/06/25 10:46:37;;;;;;;;;;;;;;;;;;;;;
2022/06/25 10:49:19;;;;;;;0.40;0.40;;;32.30;85.20;;;;;;5056220;28;20213;-72
2022/06/25 10:51:49;;;;;;;7.88;0.98;;;31.90;78.80;;;;;;5069504;28;20222;-72
2022/06/25 10:54:25;;;;;;;1.23;0.70;;;31.90;84.50;;;;;;5076104;28;20207;-72
2022/06/25 10:57:00;;;;;;;0.57;0.43;;;32.00;85.30;;;;;;5074744;28;20202;-72
2022/06/25 10:59:32;;;;;;;0.38;0.38;;;31.80;81.20;;;;;;5074100;28;20230;-72
2022/06/25 11:02:23;;;;;;;0.50;0.45;;;32.00;81.40;;;;;;5074856;28;20685;-72
2022/06/25 11:04:53;;;;;;;3.58;0.95;;;32.20;87.50;;;;;;5074067;28;20200;-72
2022/06/25 11:08:12;;;;;;;4.00;0.50;;;32.50;83.30;;;;;;5072032;28;20531;-73
2022/06/25 11:10:49;;;;;;;0.43;0.40;;;32.70;78.30;;;;;;5028843;28;20548;-73
2022/06/25 11:13:34;;;;;;;0.32;0.32;;;33.10;80.30;;;;;;5065674;28;20191;-72
2022/06/25 11:16:19;;;;;;;0.30;0.30;;;33.20;80.30;;;;;;5094144;28;20232;-72
2022/06/25 11:19:00;;;;;;;0.63;0.50;;;32.50;77.00;;;;;;5095978;28;20686;-73
2022/06/25 11:21:39;;;;;;;1.00;0.50;;;32.70;79.80;;;;;;5096172;28;20202;-71
2022/06/25 11:24:24;;;;;;;1.00;0.85;;;32.80;80.40;;;;;;5096539;28;20188;-72
2022/06/25 11:29:56;;;;;;;0.57;0.57;;;32.40;79.40;;;;;;5096550;28;20198;-72
2022/06/25 11:32:28;;;;;;;0.50;0.45;;;32.50;75.80;;;;;;5096523;28;20605;-72
2022/06/25 11:34:56;;;;;;;0.88;0.82;;;32.20;78.80;;;;;;5094716;28;20230;-72
2022/06/25 11:37:23;;;;;;;1.13;0.73;;;32.60;80.50;;;;;;5096258;28;20195;-72
2022/06/25 11:39:56;;;;;;;1.17;0.65;;;32.80;78.80;;;;;;5094919;28;20211;-72
2022/06/25 11:42:23;;;;;;;0.60;0.60;;;32.90;79.10;;;;;;5096175;28;20732;-73
2022/06/25 11:44:54;;;;;;;1.10;0.47;;;32.90;75.70;;;;;;5095617;28;20218;-72
2022/06/25 11:47:31;;;;;;;0.70;0.40;;;32.40;76.50;;;;;;5085021;28;20204;-72
2022/06/25 11:50:01;;;;;;;1.05;0.68;;;32.20;75.50;;;;;;5074138;28;20196;-73
2022/06/25 11:52:28;;;;;;;1.35;0.65;;;32.70;81.70;;;;;;5074229;28;20271;-73
2022/06/25 11:54:54;;;;;;;0.65;0.60;;;33.00;77.80;;;;;;5075961;28;20189;-72
2022/06/25 11:57:29;;;;;;;1.90;1.15;;;33.20;75.70;;;;;;5075612;28;20192;-73
2022/06/25 11:59:56;;;;;;;0.75;0.65;;;33.80;79.10;;;;;;5076485;28;20188;-73
2022/06/25 12:02:27;;;;;;;1.13;0.60;;;33.30;77.30;;;;;;5074738;28;20685;-73
2022/06/25 12:04:59;;;;;;;0.40;0.40;;;33.80;78.60;;;;;;5075179;28;20208;-73
2022/06/25 12:07:59;;;;;;;1.75;1.13;;;33.80;77.20;;;;;;5067682;28;20687;-72
2022/06/25 12:10:35;;;;;;;0.73;0.70;;;33.50;73.70;;;;;;5080667;28;20203;-72
2022/06/25 12:13:01;;;;;;;1.65;1.15;;;33.40;76.50;;;;;;5096519;28;20251;-73
2022/06/25 12:15:38;;;;;;;0.57;0.50;;;33.50;78.20;;;;;;5095460;28;20247;-72
2022/06/25 12:18:31;;;;;;;0.30;0.30;;;33.90;74.30;;;;;;5096132;28;20196;-74
2022/06/25 12:21:24;;;;;;;0.68;0.60;;;33.10;73.40;;;;;;5095811;28;20549;-73
2022/06/25 12:24:09;;;;;;;0.60;0.40;;;33.30;77.20;;;;;;5058058;28;20268;-74
2022/06/25 12:26:36;;;;;;;0.70;0.68;;;32.90;77.30;;;;;;5092196;28;20658;-76
2022/06/25 12:29:07;;;;;;;0.77;0.60;;;32.10;76.10;;;;;;5092395;28;20524;-76
2022/06/25 12:31:34;;;;;;;1.27;0.73;;;31.90;78.10;;;;;;5093418;28;20195;-76
2022/06/25 12:34:02;;;;;;;1.17;0.80;;;32.30;78.50;;;;;;5093316;28;20677;-75
2022/06/25 12:36:29;;;;;;;0.98;0.47;;;32.70;79.40;;;;;;5091525;28;20196;-76
2022/06/25 12:38:55;;;;;;;0.93;0.70;;;33.30;79.20;;;;;;5093181;28;20191;-75
2022/06/25 12:41:21;;;;;;;1.17;0.80;;;33.10;78.80;;;;;;5093207;28;20200;-76
2022/06/25 12:43:48;;;;;;;1.00;0.85;;;33.40;79.10;;;;;;5083801;28;20284;-76
2022/06/25 12:46:21;;;;;;;0.93;0.80;;;33.50;78.70;;;;;;5071913;28;20200;-76
2022/06/25 12:48:59;;;;;;;0.77;0.60;;;33.70;76.70;;;;;;5070955;28;20212;-76
2022/06/25 12:51:27;;;;;;;1.52;0.90;;;33.30;76.20;;;;;;5071269;28;20192;-75
2022/06/25 12:53:56;;;;;;;2.05;1.15;;;33.60;80.70;;;;;;5073145;28;20242;-75
2022/06/25 12:56:22;;;;;;;0.52;0.47;;;33.50;76.70;;;;;;5071601;28;20216;-76
2022/06/25 12:58:48;;;;;;;0.93;0.70;;;33.40;76.20;;;;;;5071686;28;20698;-76
2022/06/25 13:01:26;;;;;;;0.43;0.38;;;33.30;74.30;;;;;;5071334;28;20196;-76
2022/06/25 13:03:52;;;;;;;0.80;0.55;;;33.20;75.70;;;;;;5072133;28;20203;-77
2022/06/25 13:06:22;;;;;;;0.52;0.50;;;32.90;78.00;;;;;;5070429;28;20215;-73
2022/06/25 13:08:48;;;;;;;2.58;0.93;;;33.20;76.40;;;;;;5072032;28;20211;-75
2022/06/25 13:11:22;;;;;;;0.50;0.50;;;33.10;77.70;;;;;;5071873;28;20674;-76
2022/06/25 13:13:49;;;;;;;1.33;0.90;;;33.30;74.10;;;;;;5070917;28;20193;-76
2022/06/25 13:16:15;;;;;;;1.25;1.02;;;33.50;77.80;;;;;;5065160;28;20232;-76
2022/06/25 13:18:42;;;;;;;0.77;0.60;;;33.60;78.60;;;;;;5051382;28;20204;-75
2022/06/25 13:21:08;;;;;;;0.75;0.57;;;33.70;74.00;;;;;;5051679;28;20276;-76
2022/06/25 13:23:34;;;;;;;1.23;0.60;;;33.50;73.70;;;;;;5051568;28;20557;-76